Time;durP1;ratioP1;P1;durP2;ratioP2;P2;SDS_P1;SDS_P2;PMS_P1;PMS_P2;Temp;Humidity;BMP_temperature;BMP_pressure;BME280_temperature;BME280_humidity;BME280_pressure;Samples;Min_cycle;Max_cycle;Signal;HPM_P1;HPM_P2
2022/03/30 00:01:53;;;;;;;75.43;14.30;;;;;;;;;;5112124;28;20488;-73
2022/03/30 00:04:21;;;;;;;73.30;13.57;;;;;;;;;;5112072;28;20507;-72
2022/03/30 00:06:48;;;;;;;76.97;14.87;;;;;;;;;;5103179;28;20532;-70
2022/03/30 00:09:17;;;;;;;76.30;13.57;;;;;;;;;;5090807;28;20825;-72
2022/03/30 00:11:44;;;;;;;76.47;15.20;;;;;;;;;;5091588;28;20445;-72
2022/03/30 00:14:11;;;;;;;73.47;15.30;;;;;;;;;;5093554;28;20460;-72
2022/03/30 00:16:38;;;;;;;80.23;14.70;;;;;;;;;;5095642;28;20471;-72
2022/03/30 00:19:05;;;;;;;75.90;14.30;;;;;;;;;;5094688;28;20460;-72
2022/03/30 00:21:33;;;;;;;78.20;15.20;;;;;;;;;;5095382;28;20489;-72
2022/03/30 00:24:00;;;;;;;84.57;13.60;;;;;;;;;;5095361;28;20448;-73
2022/03/30 00:26:28;;;;;;;74.77;13.00;;;;;;;;;;5095560;28;20857;-71
2022/03/30 00:28:55;;;;;;;75.77;13.80;;;;;;;;;;5094575;28;20966;-72
2022/03/30 00:31:22;;;;;;;75.80;13.43;;;;;;;;;;5095621;28;20442;-72
2022/03/30 00:33:51;;;;;;;77.60;14.20;;;;;;;;;;5095364;28;20497;-72
2022/03/30 00:36:18;;;;;;;78.60;14.13;;;;;;;;;;5095120;28;20579;-72
2022/03/30 00:38:45;;;;;;;81.90;14.80;;;;;;;;;;5093117;28;20539;-67
2022/03/30 00:41:13;;;;;;;76.87;15.23;;;;;;;;;;5113717;28;20899;-73
2022/03/30 00:43:42;;;;;;;77.60;14.80;;;;;;;;;;5115759;28;20446;-72
2022/03/30 00:46:11;;;;;;;78.50;15.30;;;;;;;;;;5115534;28;20951;-72
2022/03/30 00:48:39;;;;;;;76.13;13.83;;;;;;;;;;5120031;28;20966;-72
2022/03/30 00:51:06;;;;;;;79.23;15.10;;;;;;;;;;5115208;28;21006;-72
2022/03/30 00:53:33;;;;;;;81.90;15.20;;;;;;;;;;5115650;28;20444;-72
2022/03/30 00:56:00;;;;;;;77.63;14.77;;;;;;;;;;5115494;28;20451;-73
2022/03/30 00:58:28;;;;;;;78.80;14.00;;;;;;;;;;5114652;28;20557;-71
2022/03/30 01:00:57;;;;;;;72.87;12.97;;;;;;;;;;5115058;28;20480;-72
2022/03/30 01:03:24;;;;;;;80.80;13.60;;;;;;;;;;5115069;28;20968;-72
2022/03/30 01:05:51;;;;;;;74.63;13.57;;;;;;;;;;5111250;28;20444;-72
2022/03/30 01:08:18;;;;;;;75.10;14.50;;;;;;;;;;5114321;28;20481;-72
2022/03/30 01:10:47;;;;;;;83.23;15.80;;;;;;;;;;5109635;28;20996;-73
2022/03/30 01:13:14;;;;;;;77.90;14.57;;;;;;;;;;5094799;28;20901;-71
2022/03/30 01:15:41;;;;;;;87.50;15.23;;;;;;;;;;5094858;28;20445;-71
2022/03/30 01:18:10;;;;;;;75.27;14.77;;;;;;;;;;5094072;28;20468;-71
2022/03/30 01:20:37;;;;;;;79.30;14.53;;;;;;;;;;5094217;28;20448;-72
2022/03/30 01:23:07;;;;;;;80.73;15.10;;;;;;;;;;5094460;28;20898;-70
2022/03/30 01:25:34;;;;;;;77.40;13.90;;;;;;;;;;5093168;28;20453;-73
2022/03/30 01:28:01;;;;;;;75.37;14.70;;;;;;;;;;5093484;28;20469;-72
2022/03/30 01:33:13;;;;;;;86.10;15.33;;;;;;;;;;5094412;28;20925;-71
2022/03/30 01:35:41;;;;;;;83.17;15.83;;;;;;;;;;5094307;28;20453;-72
2022/03/30 01:38:10;;;;;;;78.57;16.23;;;;;;;;;;5093207;28;20888;-72
2022/03/30 01:40:37;;;;;;;86.20;16.90;;;;;;;;;;5094155;28;20452;-72
2022/03/30 01:43:04;;;;;;;81.67;15.90;;;;;;;;;;5096190;28;20458;-72
2022/03/30 01:45:32;;;;;;;78.13;15.30;;;;;;;;;;5114629;27;20447;-72
2022/03/30 01:48:00;;;;;;;75.73;15.10;;;;;;;;;;5113610;28;20555;-70
2022/03/30 01:50:29;;;;;;;76.03;14.20;;;;;;;;;;5114043;28;20470;-71
2022/03/30 01:52:56;;;;;;;81.90;16.97;;;;;;;;;;5114491;28;20445;-72
2022/03/30 01:55:25;;;;;;;78.23;15.77;;;;;;;;;;5114220;28;20959;-72
2022/03/30 01:57:52;;;;;;;74.83;14.33;;;;;;;;;;5113468;28;20566;-73
2022/03/30 02:00:19;;;;;;;84.67;16.37;;;;;;;;;;5114189;28;20453;-72
2022/03/30 02:02:47;;;;;;;77.80;15.90;;;;;;;;;;5113786;28;20484;-72
2022/03/30 02:05:16;;;;;;;86.23;17.17;;;;;;;;;;5113952;28;20819;-72
2022/03/30 02:07:43;;;;;;;77.90;15.17;;;;;;;;;;5113296;28;20471;-72
2022/03/30 02:10:10;;;;;;;75.00;15.67;;;;;;;;;;5113353;28;20451;-72
2022/03/30 02:12:39;;;;;;;74.73;14.23;;;;;;;;;;5113912;28;20437;-70
2022/03/30 02:15:07;;;;;;;81.70;15.17;;;;;;;;;;5103859;28;20544;-72
2022/03/30 02:17:34;;;;;;;79.77;15.83;;;;;;;;;;5092485;28;20468;-72
2022/03/30 02:20:02;;;;;;;75.53;15.80;;;;;;;;;;5093380;28;20448;-73
2022/03/30 02:22:29;;;;;;;77.17;15.17;;;;;;;;;;5092995;28;20495;-73
2022/03/30 02:24:56;;;;;;;74.33;16.80;;;;;;;;;;5093601;28;20455;-72
2022/03/30 02:27:24;;;;;;;81.30;16.60;;;;;;;;;;5092431;28;20985;-73
2022/03/30 02:29:53;;;;;;;81.20;15.87;;;;;;;;;;5092866;28;20468;-72
2022/03/30 02:32:20;;;;;;;80.43;19.97;;;;;;;;;;5092872;28;20471;-73
2022/03/30 02:34:48;;;;;;;83.47;17.43;;;;;;;;;;5093224;28;20834;-73
2022/03/30 02:37:15;;;;;;;80.37;15.47;;;;;;;;;;5092277;28;20469;-73
2022/03/30 02:39:42;;;;;;;84.77;15.77;;;;;;;;;;5093190;28;20448;-73
2022/03/30 02:42:09;;;;;;;80.87;16.37;;;;;;;;;;5092564;28;20485;-73
2022/03/30 02:44:37;;;;;;;82.97;17.70;;;;;;;;;;5092755;28;20530;-72
2022/03/30 02:47:06;;;;;;;82.83;16.80;;;;;;;;;;5090106;28;20472;-73
2022/03/30 02:49:34;;;;;;;75.70;16.70;;;;;;;;;;5092359;28;20457;-73
2022/03/30 02:52:01;;;;;;;78.17;17.30;;;;;;;;;;5092825;28;20479;-72
2022/03/30 02:54:29;;;;;;;76.47;16.10;;;;;;;;;;5092755;28;20820;-72
2022/03/30 02:56:57;;;;;;;80.63;15.67;;;;;;;;;;5092647;28;20505;-72
2022/03/30 02:59:24;;;;;;;81.53;16.03;;;;;;;;;;5092403;28;20448;-73
2022/03/30 03:01:51;;;;;;;80.67;17.53;;;;;;;;;;5092352;28;21011;-70
2022/03/30 03:04:19;;;;;;;77.60;16.70;;;;;;;;;;5092359;28;20452;-72
2022/03/30 03:06:47;;;;;;;80.47;17.10;;;;;;;;;;5092548;28;21057;-73
2022/03/30 03:09:14;;;;;;;80.90;15.97;;;;;;;;;;5092124;28;20447;-73
2022/03/30 03:11:41;;;;;;;78.00;15.90;;;;;;;;;;5092452;28;20651;-72
2022/03/30 03:14:09;;;;;;;74.60;14.87;;;;;;;;;;5092515;28;21019;-72
2022/03/30 03:16:36;;;;;;;76.27;15.97;;;;;;;;;;5092438;28;20467;-72
2022/03/30 03:19:04;;;;;;;82.83;15.07;;;;;;;;;;5094725;28;20811;-71
2022/03/30 03:21:33;;;;;;;77.63;15.40;;;;;;;;;;5112605;28;20472;-72
2022/03/30 03:24:00;;;;;;;76.10;15.33;;;;;;;;;;5112728;28;20960;-73
2022/03/30 03:26:27;;;;;;;85.60;16.83;;;;;;;;;;5112430;28;20457;-73
2022/03/30 03:28:54;;;;;;;81.90;14.93;;;;;;;;;;5111805;28;20452;-72
2022/03/30 03:31:21;;;;;;;80.33;16.83;;;;;;;;;;5112367;28;20533;-72
2022/03/30 03:33:49;;;;;;;79.70;15.80;;;;;;;;;;5112332;28;20438;-72
2022/03/30 03:36:16;;;;;;;77.37;14.63;;;;;;;;;;5112343;28;20539;-71
2022/03/30 03:38:44;;;;;;;79.80;16.40;;;;;;;;;;5111681;28;20542;-72
2022/03/30 03:41:11;;;;;;;74.90;13.90;;;;;;;;;;5111996;28;20901;-72
2022/03/30 03:43:39;;;;;;;83.47;16.83;;;;;;;;;;5112479;28;20446;-72
2022/03/30 03:46:06;;;;;;;82.80;16.40;;;;;;;;;;5112444;28;20480;-72
2022/03/30 03:48:34;;;;;;;81.00;16.20;;;;;;;;;;5110784;28;20546;-72
2022/03/30 03:51:01;;;;;;;78.83;15.57;;;;;;;;;;5107758;28;21003;-73
2022/03/30 03:53:28;;;;;;;78.30;15.63;;;;;;;;;;5111824;28;20936;-72
2022/03/30 03:55:57;;;;;;;76.43;15.63;;;;;;;;;;5112336;28;20558;-72
2022/03/30 03:58:24;;;;;;;78.97;15.70;;;;;;;;;;5111604;28;20469;-72
2022/03/30 04:00:51;;;;;;;82.20;16.17;;;;;;;;;;5112274;28;20449;-72
2022/03/30 04:03:18;;;;;;;83.07;16.70;;;;;;;;;;5111631;28;20487;-72
2022/03/30 04:05:45;;;;;;;79.83;16.47;;;;;;;;;;5112237;28;20458;-73
2022/03/30 04:08:12;;;;;;;77.50;14.77;;;;;;;;;;5111571;28;20805;-74
2022/03/30 04:10:40;;;;;;;78.40;16.10;;;;;;;;;;5112252;28;20447;-73
2022/03/30 04:13:09;;;;;;;77.40;15.40;;;;;;;;;;5111734;28;20443;-73
2022/03/30 04:15:37;;;;;;;78.57;17.47;;;;;;;;;;5112444;28;20447;-73
2022/03/30 04:18:07;;;;;;;81.90;16.93;;;;;;;;;;5111079;28;21006;-73
2022/03/30 04:20:34;;;;;;;79.20;16.53;;;;;;;;;;5111817;28;20445;-73
2022/03/30 04:23:02;;;;;;;80.53;16.43;;;;;;;;;;5102448;28;20533;-72
2022/03/30 04:25:29;;;;;;;74.07;14.47;;;;;;;;;;5091565;28;20472;-74
2022/03/30 04:27:56;;;;;;;78.53;17.63;;;;;;;;;;5090856;28;20559;-73
2022/03/30 04:30:25;;;;;;;82.13;15.63;;;;;;;;;;5091349;28;20466;-74
2022/03/30 04:32:53;;;;;;;78.13;16.07;;;;;;;;;;5091067;28;20475;-73
2022/03/30 04:35:24;;;;;;;80.83;16.70;;;;;;;;;;5091401;28;20488;-74
2022/03/30 04:37:52;;;;;;;80.70;17.60;;;;;;;;;;5090575;28;20469;-73
2022/03/30 04:40:19;;;;;;;80.73;16.53;;;;;;;;;;5091295;28;20540;-73
2022/03/30 04:42:46;;;;;;;77.47;16.77;;;;;;;;;;5091367;28;20495;-73
2022/03/30 04:45:14;;;;;;;79.57;16.77;;;;;;;;;;5091244;28;20471;-73
2022/03/30 04:47:42;;;;;;;85.27;18.27;;;;;;;;;;5090505;28;20926;-74
2022/03/30 04:50:10;;;;;;;77.97;16.63;;;;;;;;;;5091291;28;20483;-72
2022/03/30 04:52:37;;;;;;;77.80;17.07;;;;;;;;;;5091200;28;20455;-74
2022/03/30 04:55:05;;;;;;;82.50;17.00;;;;;;;;;;5087745;28;20456;-74
2022/03/30 04:57:32;;;;;;;85.00;19.57;;;;;;;;;;5090620;28;20480;-74
2022/03/30 05:00:00;;;;;;;75.37;16.70;;;;;;;;;;5092596;28;20473;-74
2022/03/30 05:02:27;;;;;;;79.30;16.17;;;;;;;;;;5095055;28;20478;-74
2022/03/30 05:04:56;;;;;;;79.50;16.10;;;;;;;;;;5095027;28;20449;-73
2022/03/30 05:07:23;;;;;;;77.73;16.97;;;;;;;;;;5094603;28;20474;-74
2022/03/30 05:09:50;;;;;;;81.37;18.83;;;;;;;;;;5096245;28;20450;-75
2022/03/30 05:12:17;;;;;;;85.00;18.07;;;;;;;;;;5095188;28;20448;-74
2022/03/30 05:14:44;;;;;;;80.37;17.90;;;;;;;;;;5094908;28;20455;-75
2022/03/30 05:17:12;;;;;;;84.87;19.20;;;;;;;;;;5093856;28;20859;-75
2022/03/30 05:19:39;;;;;;;86.73;19.20;;;;;;;;;;5096905;28;20539;-74
2022/03/30 05:22:07;;;;;;;87.07;19.97;;;;;;;;;;5094740;28;20511;-75
2022/03/30 05:24:35;;;;;;;80.30;17.63;;;;;;;;;;5094361;28;20455;-73
2022/03/30 05:27:02;;;;;;;90.10;21.60;;;;;;;;;;5091066;28;20839;-75
2022/03/30 05:29:29;;;;;;;86.00;18.73;;;;;;;;;;5093576;28;20560;-73
2022/03/30 05:31:56;;;;;;;84.47;18.20;;;;;;;;;;5094469;28;20463;-75
2022/03/30 05:34:24;;;;;;;83.07;19.80;;;;;;;;;;5094242;28;20450;-75
2022/03/30 05:36:51;;;;;;;82.43;18.87;;;;;;;;;;5094253;28;20468;-71
2022/03/30 05:39:20;;;;;;;81.33;19.43;;;;;;;;;;5093569;28;20531;-75
2022/03/30 05:41:47;;;;;;;87.83;19.23;;;;;;;;;;5093891;28;20444;-74
2022/03/30 05:44:14;;;;;;;82.07;19.40;;;;;;;;;;5093695;28;20936;-75
2022/03/30 05:46:41;;;;;;;87.73;21.10;;;;;;;;;;5093909;28;20476;-73
2022/03/30 05:49:08;;;;;;;88.93;19.73;;;;;;;;;;5093674;28;20450;-73
2022/03/30 05:51:35;;;;;;;83.90;20.40;;;;;;;;;;5094093;28;20830;-73
2022/03/30 05:54:03;;;;;;;84.63;21.10;;;;;;;;;;5093641;28;20965;-74
2022/03/30 05:59:16;;;;;;;86.60;21.30;;;;;;;;;;5107549;28;20947;-74
2022/03/30 06:01:43;;;;;;;83.97;20.20;;;;;;;;;;5114160;28;20543;-75
2022/03/30 06:04:10;;;;;;;89.90;23.07;;;;;;;;;;5113535;28;20483;-74
2022/03/30 06:06:37;;;;;;;86.70;21.03;;;;;;;;;;5114004;28;21051;-75
2022/03/30 06:09:07;;;;;;;84.60;19.87;;;;;;;;;;5113110;28;20454;-74
2022/03/30 06:11:36;;;;;;;99.83;23.10;;;;;;;;;;5113515;28;20962;-73
2022/03/30 06:14:03;;;;;;;92.63;22.50;;;;;;;;;;5113556;28;20879;-73
2022/03/30 06:16:30;;;;;;;91.93;23.10;;;;;;;;;;5113966;28;20455;-72
2022/03/30 06:18:58;;;;;;;89.80;21.53;;;;;;;;;;5113110;28;20932;-73
2022/03/30 06:21:25;;;;;;;90.37;22.80;;;;;;;;;;5113613;28;20447;-73
2022/03/30 06:23:53;;;;;;;90.43;22.50;;;;;;;;;;5113579;28;20580;-72
2022/03/30 06:26:20;;;;;;;88.33;22.13;;;;;;;;;;5113547;28;20452;-73
2022/03/30 06:28:49;;;;;;;88.73;21.50;;;;;;;;;;5112129;27;20456;-73
2022/03/30 06:31:17;;;;;;;87.57;22.20;;;;;;;;;;5092091;28;20539;-73
2022/03/30 06:33:45;;;;;;;93.13;23.90;;;;;;;;;;5092855;28;20449;-71
2022/03/30 06:36:12;;;;;;;92.77;23.47;;;;;;;;;;5092972;28;20444;-73
2022/03/30 06:38:39;;;;;;;89.27;23.20;;;;;;;;;;5092135;28;21003;-72
2022/03/30 06:41:07;;;;;;;86.70;22.60;;;;;;;;;;5093242;28;20529;-73
2022/03/30 06:43:34;;;;;;;91.50;22.77;;;;;;;;;;5092884;28;20482;-73
2022/03/30 06:46:03;;;;;;;93.70;24.33;;;;;;;;;;5092826;28;20647;-73
2022/03/30 06:48:31;;;;;;;88.70;21.63;;;;;;;;;;5092509;28;21140;-73
2022/03/30 06:50:58;;;;;;;83.83;22.30;;;;;;;;;;5092826;28;20449;-73
2022/03/30 06:53:26;;;;;;;94.30;25.00;;;;;;;;;;5092797;28;20495;-72
2022/03/30 06:55:53;;;;;;;87.77;22.43;;;;;;;;;;5092876;28;20824;-73
2022/03/30 06:58:22;;;;;;;93.43;24.77;;;;;;;;;;5091995;28;20471;-72
2022/03/30 07:00:49;;;;;;;88.37;22.50;;;;;;;;;;5091024;28;20551;-72
2022/03/30 07:03:17;;;;;;;87.93;23.90;;;;;;;;;;5112672;28;21110;-73
2022/03/30 07:05:45;;;;;;;88.90;23.97;;;;;;;;;;5112752;28;20451;-73
2022/03/30 07:10:57;;;;;;;91.87;24.63;;;;;;;;;;5112585;28;20423;-73
2022/03/30 07:13:24;;;;;;;87.20;23.33;;;;;;;;;;5112786;28;20447;-72
2022/03/30 07:15:51;;;;;;;94.67;23.43;;;;;;;;;;5112875;28;20441;-73
2022/03/30 07:18:20;;;;;;;99.23;25.30;;;;;;;;;;5111834;28;20469;-73
2022/03/30 07:20:48;;;;;;;102.00;25.47;;;;;;;;;;5112611;28;21004;-73
2022/03/30 07:23:15;;;;;;;99.30;24.47;;;;;;;;;;5111673;28;20492;-73
2022/03/30 07:25:42;;;;;;;92.37;22.37;;;;;;;;;;5112275;28;20462;-72
2022/03/30 07:28:10;;;;;;;92.03;25.63;;;;;;;;;;5111901;28;20470;-73
2022/03/30 07:30:37;;;;;;;94.43;23.13;;;;;;;;;;5112515;28;20820;-73
2022/03/30 07:33:05;;;;;;;100.10;23.87;;;;;;;;;;5101698;28;20446;-72
2022/03/30 07:35:33;;;;;;;99.87;23.33;;;;;;;;;;5091998;28;20866;-73
2022/03/30 07:38:01;;;;;;;90.30;22.67;;;;;;;;;;5091673;28;20522;-73
2022/03/30 07:40:29;;;;;;;98.17;21.80;;;;;;;;;;5091736;28;20465;-72
2022/03/30 07:42:57;;;;;;;89.30;21.80;;;;;;;;;;5091897;28;20481;-72
2022/03/30 07:45:25;;;;;;;95.17;23.80;;;;;;;;;;5091724;28;20895;-73
2022/03/30 07:47:52;;;;;;;92.50;24.17;;;;;;;;;;5091485;28;20558;-73
2022/03/30 07:50:20;;;;;;;91.87;23.50;;;;;;;;;;5091815;28;20841;-72
2022/03/30 07:52:48;;;;;;;99.23;23.13;;;;;;;;;;5091477;28;20531;-71
2022/03/30 07:55:16;;;;;;;78.87;19.30;;;;;;;;;;5090583;28;20536;-73
2022/03/30 07:57:43;;;;;;;88.97;21.70;;;;;;;;;;5090567;28;20473;-72
2022/03/30 08:00:11;;;;;;;82.40;21.63;;;;;;;;;;5091401;28;20458;-73
2022/03/30 08:02:39;;;;;;;91.23;22.90;;;;;;;;;;5091244;28;20460;-70
2022/03/30 08:05:08;;;;;;;89.77;23.50;;;;;;;;;;5088303;28;20450;-72
2022/03/30 08:07:35;;;;;;;85.27;20.87;;;;;;;;;;5090802;28;20473;-72
2022/03/30 08:10:04;;;;;;;90.00;19.60;;;;;;;;;;5092038;28;20557;-71
2022/03/30 08:12:31;;;;;;;82.20;21.90;;;;;;;;;;5092027;28;20980;-73
2022/03/30 08:14:58;;;;;;;88.77;21.30;;;;;;;;;;5091763;28;20442;-72
2022/03/30 08:17:25;;;;;;;86.57;19.70;;;;;;;;;;5090765;28;20887;-72
2022/03/30 08:19:54;;;;;;;77.53;18.37;;;;;;;;;;5091807;28;20455;-70
2022/03/30 08:22:26;;;;;;;88.03;21.33;;;;;;;;;;5091643;28;20537;-70
2022/03/30 08:24:53;;;;;;;87.97;19.30;;;;;;;;;;5091822;28;20484;-70
2022/03/30 08:27:23;;;;;;;88.40;21.40;;;;;;;;;;5090858;28;20470;-72
2022/03/30 08:29:50;;;;;;;86.23;20.77;;;;;;;;;;5091764;28;20808;-72
2022/03/30 08:32:18;;;;;;;87.50;20.40;;;;;;;;;;5091393;28;20488;-73
2022/03/30 08:34:46;;;;;;;83.63;18.87;;;;;;;;;;5092457;28;20456;-72
2022/03/30 08:37:14;;;;;;;84.30;18.77;;;;;;;;;;5092580;28;20481;-73
2022/03/30 08:39:41;;;;;;;89.50;22.17;;;;;;;;;;5095531;28;20445;-73
2022/03/30 08:42:09;;;;;;;101.47;22.47;;;;;;;;;;5095550;28;20449;-72
2022/03/30 08:44:38;;;;;;;97.50;21.23;;;;;;;;;;5095230;28;20482;-73
2022/03/30 08:47:05;;;;;;;87.43;20.27;;;;;;;;;;5094537;28;20476;-69
2022/03/30 08:49:34;;;;;;;82.43;20.60;;;;;;;;;;5094714;28;20540;-70
2022/03/30 08:52:02;;;;;;;84.73;19.17;;;;;;;;;;5095101;28;20498;-73
2022/03/30 08:54:29;;;;;;;84.50;19.27;;;;;;;;;;5095054;28;20446;-71
2022/03/30 08:56:56;;;;;;;84.13;18.47;;;;;;;;;;5094737;28;20476;-70
2022/03/30 08:59:24;;;;;;;84.63;18.40;;;;;;;;;;5094355;28;20451;-71
2022/03/30 09:01:55;;;;;;;82.30;18.77;;;;;;;;;;5094835;28;20898;-71
2022/03/30 09:04:22;;;;;;;83.93;18.40;;;;;;;;;;5095060;28;20554;-73
2022/03/30 09:06:50;;;;;;;79.47;16.83;;;;;;;;;;5094555;28;20548;-72
2022/03/30 09:09:18;;;;;;;86.00;18.13;;;;;;;;;;5091538;28;20953;-70
2022/03/30 09:11:52;;;;;;;85.90;18.00;;;;;;;;;;5094804;28;20450;-71
2022/03/30 09:14:20;;;;;;;84.27;19.50;;;;;;;;;;5094437;28;20441;-72
2022/03/30 09:16:49;;;;;;;88.20;19.33;;;;;;;;;;5094615;28;20557;-71
2022/03/30 09:19:18;;;;;;;87.80;20.90;;;;;;;;;;5093992;28;20454;-71
2022/03/30 09:21:47;;;;;;;104.93;26.33;;;;;;;;;;5094723;28;20532;-74
2022/03/30 09:24:15;;;;;;;113.13;31.83;;;;;;;;;;5094405;28;20846;-72
2022/03/30 09:26:43;;;;;;;95.03;24.27;;;;;;;;;;5094591;28;20466;-71
2022/03/30 09:29:10;;;;;;;98.77;27.40;;;;;;;;;;5093397;28;20853;-72
2022/03/30 09:31:38;;;;;;;121.40;35.40;;;;;;;;;;5094593;28;20478;-70
2022/03/30 09:34:07;;;;;;;108.97;27.43;;;;;;;;;;5094181;28;20449;-72
2022/03/30 09:36:36;;;;;;;107.40;26.90;;;;;;;;;;5093938;28;21021;-72
2022/03/30 09:39:04;;;;;;;95.07;22.97;;;;;;;;;;5092234;28;20468;-70
2022/03/30 09:41:46;;;;;;;91.17;22.30;;;;;;;;;;5114901;28;20881;-72
2022/03/30 09:44:13;;;;;;;101.33;23.60;;;;;;;;;;5114622;28;20485;-72
2022/03/30 09:46:56;;;;;;;107.30;24.97;;;;;;;;;;5113491;28;20468;-73
2022/03/30 09:49:33;;;;;;;111.27;26.97;;;;;;;;;;5111685;28;20467;-72
2022/03/30 09:52:02;;;;;;;100.70;26.67;;;;;;;;;;5114273;27;20539;-72
2022/03/30 09:54:39;;;;;;;99.40;27.10;;;;;;;;;;5114411;28;20452;-72
2022/03/30 09:57:10;;;;;;;97.87;25.77;;;;;;;;;;5113710;28;20462;-72
2022/03/30 09:59:52;;;;;;;102.83;25.70;;;;;;;;;;5114202;28;20502;-72
2022/03/30 10:02:19;;;;;;;95.87;24.80;;;;;;;;;;5114041;28;20983;-72
2022/03/30 10:04:47;;;;;;;106.67;28.70;;;;;;;;;;5114258;28;20488;-71
2022/03/30 10:07:15;;;;;;;106.47;27.87;;;;;;;;;;5113215;28;20468;-73
2022/03/30 10:09:43;;;;;;;114.53;28.03;;;;;;;;;;5113056;28;20452;-72
2022/03/30 10:12:12;;;;;;;102.80;26.93;;;;;;;;;;5093076;27;20459;-73
2022/03/30 10:14:41;;;;;;;93.00;20.33;;;;;;;;;;5093598;28;20442;-73
2022/03/30 10:17:08;;;;;;;83.50;18.53;;;;;;;;;;5092846;28;20470;-72
2022/03/30 10:19:35;;;;;;;92.03;19.53;;;;;;;;;;5093528;28;20450;-73
2022/03/30 10:22:07;;;;;;;83.70;17.27;;;;;;;;;;5093472;28;20950;-72
2022/03/30 10:24:49;;;;;;;83.63;17.90;;;;;;;;;;5093027;28;21016;-73
2022/03/30 10:27:23;;;;;;;90.50;17.03;;;;;;;;;;5092423;28;20523;-73
2022/03/30 10:29:53;;;;;;;83.70;16.83;;;;;;;;;;5093220;28;20458;-73
2022/03/30 10:32:21;;;;;;;78.70;15.87;;;;;;;;;;5093201;28;20450;-73
2022/03/30 10:35:03;;;;;;;88.77;17.20;;;;;;;;;;5093277;28;20814;-73
2022/03/30 10:37:33;;;;;;;91.67;16.40;;;;;;;;;;5106284;28;20526;-73
2022/03/30 10:40:09;;;;;;;80.20;16.17;;;;;;;;;;5118535;28;20468;-73
2022/03/30 10:42:57;;;;;;;89.33;19.03;;;;;;;;;;5115523;28;20569;-69
2022/03/30 10:45:25;;;;;;;86.10;17.70;;;;;;;;;;5113577;28;20495;-72
2022/03/30 10:48:07;;;;;;;91.87;17.03;;;;;;;;;;5112364;28;20465;-70
2022/03/30 10:50:34;;;;;;;78.87;13.07;;;;;;;;;;5093087;28;20495;-72
2022/03/30 10:53:01;;;;;;;73.43;10.30;;;;;;;;;;5094426;28;20981;-72
2022/03/30 10:55:31;;;;;;;70.93;9.30;;;;;;;;;;5092932;28;21037;-72
2022/03/30 10:58:01;;;;;;;67.13;8.83;;;;;;;;;;5091999;28;21023;-72
2022/03/30 11:00:29;;;;;;;69.70;9.40;;;;;;;;;;5092461;28;20442;-71
2022/03/30 11:03:07;;;;;;;79.07;9.63;;;;;;;;;;5092990;28;20529;-72
2022/03/30 11:05:35;;;;;;;68.47;10.17;;;;;;;;;;5092848;28;20573;-71
2022/03/30 11:08:03;;;;;;;70.43;12.07;;;;;;;;;;5091918;28;20492;-72
2022/03/30 11:10:32;;;;;;;72.53;8.80;;;;;;;;;;5092371;28;20450;-71
2022/03/30 11:13:06;;;;;;;66.63;7.90;;;;;;;;;;5092494;28;20450;-71
2022/03/30 11:15:54;;;;;;;67.00;8.10;;;;;;;;;;5092422;28;20478;-72
2022/03/30 11:18:21;;;;;;;72.43;8.20;;;;;;;;;;5091198;28;20483;-72
2022/03/30 11:21:07;;;;;;;66.17;8.60;;;;;;;;;;5096656;28;20951;-72
2022/03/30 11:23:34;;;;;;;72.43;10.50;;;;;;;;;;5112402;28;20449;-72
2022/03/30 11:26:03;;;;;;;78.60;9.87;;;;;;;;;;5112858;28;20848;-72
2022/03/30 11:28:36;;;;;;;69.70;9.47;;;;;;;;;;5111868;27;20821;-72
2022/03/30 11:31:05;;;;;;;73.73;9.90;;;;;;;;;;5112297;28;20465;-72
2022/03/30 11:33:34;;;;;;;69.83;9.30;;;;;;;;;;5112493;28;20896;-72
2022/03/30 11:36:04;;;;;;;74.60;9.23;;;;;;;;;;5112218;28;20482;-72
2022/03/30 11:38:37;;;;;;;79.63;10.20;;;;;;;;;;5111685;27;20501;-71
2022/03/30 11:41:07;;;;;;;74.30;9.40;;;;;;;;;;5112453;28;20449;-71
2022/03/30 11:45:12;;;;;;;73.27;10.83;;;;;;;;;;5113748;28;20549;-71
2022/03/30 11:46:25;;;;;;;83.33;10.90;;;;;;;;;;5112974;28;20499;-70
2022/03/30 11:48:53;;;;;;;74.10;10.97;;;;;;;;;;5113356;28;20460;-71
2022/03/30 11:51:25;;;;;;;72.87;13.03;;;;;;;;;;5113685;28;20446;-69
2022/03/30 11:54:10;;;;;;;69.47;9.83;;;;;;;;;;5112891;27;20445;-69
2022/03/30 11:56:38;;;;;;;67.50;9.97;;;;;;;;;;5113972;28;20996;-70
2022/03/30 11:59:06;;;;;;;78.70;10.37;;;;;;;;;;5111662;28;20441;-70
2022/03/30 12:01:35;;;;;;;72.00;10.13;;;;;;;;;;5112422;28;20453;-71
2022/03/30 12:04:03;;;;;;;78.33;9.40;;;;;;;;;;5113458;28;20491;-70
2022/03/30 12:06:30;;;;;;;65.80;8.93;;;;;;;;;;5112654;28;20449;-71
2022/03/30 12:08:58;;;;;;;69.50;9.03;;;;;;;;;;5111594;28;20506;-70
2022/03/30 12:11:29;;;;;;;71.03;9.93;;;;;;;;;;5117195;28;20878;-68
2022/03/30 12:13:59;;;;;;;70.53;9.33;;;;;;;;;;5117546;27;20501;-67
2022/03/30 12:16:27;;;;;;;67.07;9.40;;;;;;;;;;5116925;28;20445;-69
2022/03/30 12:18:55;;;;;;;67.10;9.47;;;;;;;;;;5115638;28;20502;-69
2022/03/30 12:21:23;;;;;;;75.17;10.40;;;;;;;;;;5116194;28;20532;-70
2022/03/30 12:23:53;;;;;;;86.87;10.30;;;;;;;;;;5116274;28;21055;-70
2022/03/30 12:26:21;;;;;;;78.23;9.53;;;;;;;;;;5116386;28;20451;-69
2022/03/30 12:28:48;;;;;;;72.90;9.90;;;;;;;;;;5115499;28;20560;-70
2022/03/30 12:31:16;;;;;;;72.30;10.50;;;;;;;;;;5116233;28;21009;-71
2022/03/30 12:33:44;;;;;;;67.47;9.70;;;;;;;;;;5116206;28;20441;-72
2022/03/30 12:36:15;;;;;;;69.60;11.10;;;;;;;;;;5116963;28;20485;-69
2022/03/30 12:38:42;;;;;;;77.33;11.00;;;;;;;;;;5116138;27;20441;-70
2022/03/30 12:41:11;;;;;;;69.40;10.30;;;;;;;;;;5116114;28;20815;-72
2022/03/30 12:43:39;;;;;;;71.03;10.17;;;;;;;;;;5115211;28;20502;-72
2022/03/30 12:46:17;;;;;;;79.23;11.40;;;;;;;;;;5116108;28;20488;-69
2022/03/30 12:48:46;;;;;;;71.87;11.27;;;;;;;;;;5114057;28;20484;-69
2022/03/30 12:51:20;;;;;;;75.17;10.73;;;;;;;;;;5097183;28;20457;-70
2022/03/30 12:53:48;;;;;;;76.93;11.40;;;;;;;;;;5095174;28;20537;-71
2022/03/30 12:56:18;;;;;;;70.07;11.20;;;;;;;;;;5095253;28;20957;-72
2022/03/30 12:58:52;;;;;;;79.37;11.67;;;;;;;;;;5094075;28;20450;-70
2022/03/30 13:01:32;;;;;;;74.60;11.77;;;;;;;;;;5094772;28;20473;-71
2022/03/30 13:04:01;;;;;;;67.83;10.43;;;;;;;;;;5094955;28;20528;-72
2022/03/30 13:06:28;;;;;;;67.97;10.70;;;;;;;;;;5094446;28;20724;-71
2022/03/30 13:09:19;;;;;;;66.10;9.10;;;;;;;;;;5093789;28;20828;-71
2022/03/30 13:11:49;;;;;;;67.17;10.20;;;;;;;;;;5079192;28;20554;-71
2022/03/30 13:14:18;;;;;;;66.50;9.57;;;;;;;;;;5094664;28;20452;-71
2022/03/30 13:16:54;;;;;;;67.60;10.43;;;;;;;;;;5094794;28;20469;-70
2022/03/30 13:19:24;;;;;;;68.47;10.43;;;;;;;;;;5093698;28;20945;-71
2022/03/30 13:21:52;;;;;;;68.00;10.80;;;;;;;;;;5089670;28;20454;-72
2022/03/30 13:24:20;;;;;;;67.27;9.97;;;;;;;;;;5094331;28;20540;-72
2022/03/30 13:26:48;;;;;;;67.10;10.37;;;;;;;;;;5094670;28;20472;-72
2022/03/30 13:29:15;;;;;;;66.37;9.17;;;;;;;;;;5094025;28;20458;-72
2022/03/30 13:31:46;;;;;;;68.37;11.00;;;;;;;;;;5094342;28;20516;-71
2022/03/30 13:34:13;;;;;;;66.57;9.70;;;;;;;;;;5094355;28;20871;-72
2022/03/30 13:36:42;;;;;;;65.00;9.50;;;;;;;;;;5094003;28;20469;-71
2022/03/30 13:39:10;;;;;;;66.63;10.03;;;;;;;;;;5093153;28;20445;-72
2022/03/30 13:41:37;;;;;;;68.47;10.67;;;;;;;;;;5093901;28;20442;-71
2022/03/30 13:44:05;;;;;;;70.63;10.27;;;;;;;;;;5093946;28;20887;-72
2022/03/30 13:46:32;;;;;;;68.67;10.40;;;;;;;;;;5093956;28;20508;-70
2022/03/30 13:49:00;;;;;;;66.50;9.47;;;;;;;;;;5093255;28;20442;-71
2022/03/30 13:51:27;;;;;;;70.77;9.77;;;;;;;;;;5092841;28;20453;-72
2022/03/30 13:53:56;;;;;;;65.00;8.57;;;;;;;;;;5091469;28;20919;-70
2022/03/30 13:56:23;;;;;;;65.60;9.00;;;;;;;;;;5094084;28;20790;-72
2022/03/30 13:58:53;;;;;;;68.30;10.10;;;;;;;;;;5093083;28;20977;-71
2022/03/30 14:01:21;;;;;;;65.00;8.80;;;;;;;;;;5093878;28;20446;-72
2022/03/30 14:03:49;;;;;;;67.33;10.40;;;;;;;;;;5093523;28;21045;-71
2022/03/30 14:06:16;;;;;;;66.00;9.60;;;;;;;;;;5093722;28;20482;-71
2022/03/30 14:08:43;;;;;;;68.77;11.40;;;;;;;;;;5093020;28;20446;-72
2022/03/30 14:11:12;;;;;;;68.03;10.90;;;;;;;;;;5093693;28;20438;-72
2022/03/30 14:13:40;;;;;;;68.93;10.17;;;;;;;;;;5093498;28;20450;-72
2022/03/30 14:16:07;;;;;;;66.97;11.20;;;;;;;;;;5093700;28;20468;-71
2022/03/30 14:18:35;;;;;;;66.50;10.37;;;;;;;;;;5092401;28;20466;-71
2022/03/30 14:21:03;;;;;;;68.40;10.80;;;;;;;;;;5093381;28;20536;-72
2022/03/30 14:23:30;;;;;;;68.77;12.50;;;;;;;;;;5091691;28;20453;-72
2022/03/30 14:25:59;;;;;;;72.20;12.70;;;;;;;;;;5113745;28;20485;-72
2022/03/30 14:28:27;;;;;;;71.20;13.17;;;;;;;;;;5112925;28;20570;-72
2022/03/30 14:30:56;;;;;;;73.53;12.70;;;;;;;;;;5113365;28;20518;-71
2022/03/30 14:33:24;;;;;;;71.00;12.13;;;;;;;;;;5112692;27;20961;-71
2022/03/30 14:35:51;;;;;;;72.63;12.97;;;;;;;;;;5113798;28;20451;-72